createdAt,value
2023-02-04T00:00:26.418Z,7.15
2023-02-04T00:02:29.228Z,7.33
2023-02-04T00:04:31.972Z,7.22
2023-02-04T00:06:34.670Z,7.16
2023-02-04T00:08:37.622Z,7.21
2023-02-04T00:10:40.230Z,7.25
2023-02-04T00:12:42.891Z,7.12
2023-02-04T00:14:45.784Z,7.04
2023-02-04T00:16:49.742Z,7.09
2023-02-04T00:18:52.467Z,7.13
2023-02-04T00:20:55.091Z,7.26
2023-02-04T00:22:58.086Z,7.17
2023-02-04T00:25:00.788Z,7.13
2023-02-04T00:27:03.855Z,7.09
2023-02-04T00:29:06.483Z,7.06
2023-02-04T00:31:09.207Z,7.12
2023-02-04T00:33:13.210Z,7.09
2023-02-04T00:35:15.827Z,7.02
2023-02-04T00:37:18.455Z,7.08
2023-02-04T00:39:21.085Z,7.11
2023-02-04T00:41:23.739Z,7.17
2023-02-04T00:43:26.446Z,7.19
2023-02-04T00:45:29.237Z,7.28
2023-02-04T00:47:31.913Z,7.18
2023-02-04T00:49:36.135Z,7.26
2023-02-04T00:51:40.102Z,7.18
2023-02-04T00:53:42.737Z,7.16
2023-02-04T00:55:46.410Z,7.20
2023-02-04T00:57:49.069Z,7.19
2023-02-04T00:59:51.668Z,7.14
2023-02-04T01:01:54.316Z,7.11
2023-02-04T01:03:56.995Z,7.34
2023-02-04T01:06:00.997Z,7.20
2023-02-04T01:08:03.615Z,7.25
2023-02-04T01:10:07.025Z,7.07
2023-02-04T01:12:09.706Z,6.99
2023-02-04T01:14:13.376Z,7.07
2023-02-04T01:16:16.174Z,7.05
2023-02-04T01:18:18.802Z,6.81
2023-02-04T01:20:21.677Z,6.86
2023-02-04T01:22:25.658Z,6.84
2023-02-04T01:24:28.367Z,6.84
2023-02-04T01:26:31.218Z,6.84
2023-02-04T01:28:33.916Z,6.72
2023-02-04T01:30:36.666Z,6.81
2023-02-04T01:32:39.384Z,6.78
2023-02-04T01:34:42.041Z,6.80
2023-02-04T01:36:44.681Z,6.72
2023-02-04T01:38:48.823Z,6.87
2023-02-04T01:40:51.461Z,6.86
2023-02-04T01:42:54.733Z,6.97
2023-02-04T01:44:57.455Z,6.80
2023-02-04T01:47:00.388Z,6.83
2023-02-04T01:49:03.068Z,6.75
2023-02-04T01:51:08.481Z,6.78
2023-02-04T01:53:11.200Z,6.62
2023-02-04T01:55:18.335Z,6.46
2023-02-04T01:57:21.203Z,6.60
2023-02-04T01:59:24.234Z,6.47
2023-02-04T02:01:41.732Z,6.60
2023-02-04T02:03:44.458Z,6.57
2023-02-04T02:05:49.785Z,6.47
2023-02-04T02:07:55.080Z,6.54
2023-02-04T02:09:57.767Z,6.52
2023-02-04T02:12:04.035Z,6.44
2023-02-04T02:14:06.864Z,6.50
2023-02-04T02:16:09.605Z,6.42
2023-02-04T02:18:13.083Z,6.52
2023-02-04T02:20:18.186Z,6.38
2023-02-04T02:22:26.907Z,6.41
2023-02-04T02:24:32.936Z,6.49
2023-02-04T02:26:35.647Z,6.26
2023-02-04T02:28:38.410Z,6.34
2023-02-04T02:30:41.953Z,6.38
2023-02-04T02:32:46.203Z,6.18
2023-02-04T02:34:48.893Z,6.17
2023-02-04T02:36:51.544Z,6.18
2023-02-04T02:38:55.450Z,5.99
2023-02-04T02:41:00.361Z,6.25
2023-02-04T02:43:03.120Z,6.11
2023-02-04T02:45:12.126Z,6.10
2023-02-04T02:47:16.721Z,6.09
2023-02-04T02:49:20.794Z,6.05
2023-02-04T02:51:23.501Z,5.98
2023-02-04T02:53:26.181Z,5.84
2023-02-04T02:55:29.646Z,6.05
2023-02-04T02:57:33.616Z,5.95
2023-02-04T02:59:36.253Z,5.98
2023-02-04T03:01:38.987Z,5.96
2023-02-04T03:03:45.462Z,5.90
2023-02-04T03:05:50.850Z,5.98
2023-02-04T03:07:53.699Z,5.72
2023-02-04T03:09:56.406Z,5.75
2023-02-04T03:11:59.074Z,5.92
2023-02-04T03:14:04.727Z,5.79
2023-02-04T03:16:09.044Z,5.75
2023-02-04T03:18:12.745Z,5.78
2023-02-04T03:20:16.444Z,5.74
2023-02-04T03:22:19.188Z,5.76
2023-02-04T03:24:21.947Z,5.91
2023-02-04T03:26:25.856Z,5.90
2023-02-04T03:28:28.619Z,5.79
2023-02-04T03:30:33.400Z,5.84
2023-02-04T03:32:36.352Z,5.96
2023-02-04T03:34:39.267Z,5.94
2023-02-04T03:36:42.038Z,6.03
2023-02-04T03:38:44.691Z,5.96
2023-02-04T03:40:47.437Z,5.98
2023-02-04T03:42:50.058Z,5.96
2023-02-04T03:44:52.738Z,5.84
2023-02-04T03:46:57.027Z,5.89
2023-02-04T03:48:59.708Z,5.82
2023-02-04T03:51:02.350Z,5.79
2023-02-04T03:53:05.057Z,5.69
2023-02-04T03:55:08.184Z,5.77
2023-02-04T03:57:11.028Z,5.86
2023-02-04T03:59:13.673Z,5.85
2023-02-04T04:01:16.395Z,5.89
2023-02-04T04:03:20.404Z,5.94
2023-02-04T04:05:23.016Z,5.86
2023-02-04T04:07:25.634Z,5.72
2023-02-04T04:09:28.241Z,5.73
2023-02-04T04:11:30.892Z,5.75
2023-02-04T04:13:33.505Z,5.74
2023-02-04T04:15:36.257Z,5.64
2023-02-04T04:17:38.904Z,5.66
2023-02-04T04:19:44.301Z,5.66
2023-02-04T04:21:46.881Z,5.81
2023-02-04T04:23:49.590Z,5.79
2023-02-04T04:25:52.312Z,5.96
2023-02-04T04:27:54.976Z,5.77
2023-02-04T04:29:57.671Z,5.84
2023-02-04T04:32:00.289Z,5.80
2023-02-04T04:34:03.035Z,5.80
2023-02-04T04:36:08.528Z,5.91
2023-02-04T04:38:11.251Z,5.96
2023-02-04T04:40:14.215Z,5.89
2023-02-04T04:42:16.852Z,5.94
2023-02-04T04:44:19.460Z,5.86
2023-02-04T04:46:22.159Z,5.93
2023-02-04T04:48:25.489Z,5.92
2023-02-04T04:50:28.223Z,5.71
2023-02-04T04:52:32.198Z,5.80
2023-02-04T04:54:34.811Z,5.96
2023-02-04T04:56:37.462Z,5.75
2023-02-04T04:58:40.089Z,5.72
2023-02-04T05:00:42.842Z,5.82
2023-02-04T05:02:45.640Z,5.67
2023-02-04T05:04:48.301Z,5.74
2023-02-04T05:06:50.992Z,5.89
2023-02-04T05:08:55.449Z,5.74
2023-02-04T05:10:58.146Z,5.74
2023-02-04T05:13:00.759Z,5.58
2023-02-04T05:15:03.489Z,5.71
2023-02-04T05:17:06.146Z,5.89
2023-02-04T05:19:08.733Z,5.87
2023-02-04T05:21:11.678Z,5.88
2023-02-04T05:23:14.371Z,5.69
2023-02-04T05:25:18.493Z,5.86
2023-02-04T05:27:21.222Z,5.78
2023-02-04T05:29:23.900Z,5.78
2023-02-04T05:31:26.576Z,5.70
2023-02-04T05:33:29.265Z,5.51
2023-02-04T05:35:32.017Z,5.73
2023-02-04T05:37:34.917Z,5.50
2023-02-04T05:39:37.580Z,5.70
2023-02-04T05:41:41.537Z,5.61
2023-02-04T05:43:44.142Z,5.54
2023-02-04T05:45:46.788Z,5.56
2023-02-04T05:47:49.442Z,5.54
2023-02-04T05:49:52.022Z,5.62
2023-02-04T05:51:54.712Z,5.71
2023-02-04T05:53:57.394Z,5.63
2023-02-04T05:56:00.013Z,5.77
2023-02-04T05:58:03.950Z,5.66
2023-02-04T06:00:07.886Z,5.65
2023-02-04T06:02:10.554Z,5.49
2023-02-04T06:04:15.369Z,5.49
2023-02-04T06:06:18.118Z,5.36
2023-02-04T06:08:20.792Z,5.43
2023-02-04T06:10:23.488Z,5.36
2023-02-04T06:12:26.063Z,5.42
2023-02-04T06:14:29.990Z,5.41
2023-02-04T06:16:32.574Z,5.55
2023-02-04T06:18:35.238Z,5.61
2023-02-04T06:20:37.976Z,5.41
2023-02-04T06:22:40.622Z,5.36
2023-02-04T06:24:43.286Z,5.45
2023-02-04T06:26:45.972Z,5.38
2023-02-04T06:28:48.590Z,5.47
2023-02-04T06:30:52.699Z,5.40
2023-02-04T06:32:55.419Z,5.32
2023-02-04T06:34:57.982Z,5.29
2023-02-04T06:37:00.572Z,5.34
2023-02-04T06:39:03.188Z,5.33
2023-02-04T06:41:06.306Z,5.36
2023-02-04T06:43:09.034Z,5.35
2023-02-04T06:45:11.698Z,5.42
2023-02-04T06:47:15.832Z,5.40
2023-02-04T06:49:18.509Z,5.42
2023-02-04T06:51:21.204Z,5.47
2023-02-04T06:53:23.943Z,5.56
2023-02-04T06:55:26.657Z,5.40
2023-02-04T06:57:29.226Z,5.36
2023-02-04T06:59:33.035Z,5.41
2023-02-04T07:01:35.709Z,5.34
2023-02-04T07:03:39.781Z,5.49
2023-02-04T07:05:42.439Z,5.31
2023-02-04T07:07:45.135Z,5.23
2023-02-04T07:09:47.732Z,5.26
2023-02-04T07:11:50.362Z,5.39
2023-02-04T07:13:53.006Z,5.53
2023-02-04T07:15:55.681Z,5.33
2023-02-04T07:17:58.388Z,5.29
2023-02-04T07:20:02.662Z,5.32
2023-02-04T07:22:05.715Z,5.41
2023-02-04T07:24:08.453Z,5.45
2023-02-04T07:26:11.075Z,5.45
2023-02-04T07:28:13.700Z,5.40
2023-02-04T07:30:16.329Z,5.48
2023-02-04T07:32:18.984Z,5.58
2023-02-04T07:34:21.738Z,5.28
2023-02-04T07:36:26.286Z,5.27
2023-02-04T07:38:29.008Z,5.57
2023-02-04T07:40:32.075Z,5.39
2023-02-04T07:42:34.937Z,5.48
2023-02-04T07:44:38.444Z,5.27
2023-02-04T07:46:41.218Z,5.27
2023-02-04T07:48:43.925Z,5.31
2023-02-04T07:50:46.627Z,5.40
2023-02-04T07:52:50.673Z,5.40
2023-02-04T07:54:53.464Z,5.46
2023-02-04T07:56:56.113Z,5.41
2023-02-04T07:58:58.795Z,5.42
2023-02-04T08:01:01.980Z,5.40
2023-02-04T08:03:05.166Z,5.38
2023-02-04T08:05:08.700Z,5.28
2023-02-04T08:07:11.274Z,5.40
2023-02-04T08:09:15.361Z,5.29
2023-02-04T08:11:18.023Z,5.18
2023-02-04T08:13:20.738Z,5.36
2023-02-04T08:15:23.352Z,5.45
2023-02-04T08:17:26.121Z,5.37
2023-02-04T08:19:28.784Z,5.47
2023-02-04T08:21:31.465Z,5.49
2023-02-04T08:23:34.207Z,5.35
2023-02-04T08:25:38.169Z,5.43
2023-02-04T08:27:41.281Z,5.63
2023-02-04T08:29:43.886Z,5.45
2023-02-04T08:31:47.666Z,5.59
2023-02-04T08:33:50.334Z,5.63
2023-02-04T08:35:52.960Z,5.57
2023-02-04T08:37:55.635Z,5.60
2023-02-04T08:39:58.498Z,5.67
2023-02-04T08:42:02.534Z,5.69
2023-02-04T08:44:05.372Z,5.89
2023-02-04T08:46:08.177Z,5.89
2023-02-04T08:48:10.831Z,5.63
2023-02-04T08:50:13.605Z,5.63
2023-02-04T08:52:16.288Z,5.81
2023-02-04T08:54:19.022Z,5.88
2023-02-04T08:56:21.666Z,5.87
2023-02-04T08:58:25.695Z,5.71
2023-02-04T09:00:28.605Z,5.75
2023-02-04T09:02:31.318Z,5.86
2023-02-04T09:04:34.546Z,6.52
2023-02-04T09:06:37.120Z,7.04
2023-02-04T09:08:39.782Z,7.12
2023-02-04T09:10:42.427Z,7.24
2023-02-04T09:12:45.092Z,7.65
2023-02-04T09:14:49.266Z,7.32
2023-02-04T09:16:51.909Z,7.10
2023-02-04T09:18:54.629Z,7.17
2023-02-04T09:20:57.244Z,6.85
2023-02-04T09:22:59.867Z,7.09
2023-02-04T09:25:02.531Z,8.38
2023-02-04T09:27:05.335Z,7.89
2023-02-04T09:29:07.940Z,8.37
2023-02-04T09:31:12.045Z,8.73
2023-02-04T09:33:16.536Z,8.03
2023-02-04T09:35:19.170Z,9.45
2023-02-04T09:37:21.800Z,8.45
2023-02-04T09:39:24.414Z,8.95
2023-02-04T09:41:27.183Z,9.78
2023-02-04T09:43:34.602Z,9.88
2023-02-04T09:45:37.798Z,10.82
2023-02-04T09:47:41.830Z,9.72
2023-02-04T09:49:46.819Z,9.63
2023-02-04T09:51:50.785Z,7.93
2023-02-04T09:53:55.852Z,9.93
2023-02-04T09:55:58.496Z,7.98
2023-02-04T09:58:01.490Z,7.64
2023-02-04T10:00:09.114Z,9.08
2023-02-04T10:02:23.989Z,9.11
2023-02-04T10:04:28.672Z,8.21
2023-02-04T10:06:31.766Z,8.89
2023-02-04T10:08:35.097Z,8.31
2023-02-04T10:10:37.680Z,7.93
2023-02-04T10:12:40.478Z,9.02
2023-02-04T10:14:43.656Z,8.35
2023-02-04T10:16:53.393Z,8.47
2023-02-04T10:18:56.444Z,9.06
2023-02-04T10:21:13.566Z,8.16
2023-02-04T10:23:16.237Z,8.07
2023-02-04T10:25:21.514Z,7.84
2023-02-04T10:27:24.438Z,7.44
2023-02-04T10:29:27.202Z,7.52
2023-02-04T10:31:37.570Z,6.70
2023-02-04T10:33:40.434Z,7.44
2023-02-04T10:35:47.845Z,7.25
2023-02-04T10:38:04.950Z,7.36
2023-02-04T10:40:27.993Z,7.22
2023-02-04T10:42:32.045Z,7.01
2023-02-04T10:44:36.595Z,6.87
2023-02-04T10:46:39.528Z,7.16
2023-02-04T10:48:43.100Z,7.57
2023-02-04T10:50:47.705Z,7.46
2023-02-04T10:52:55.353Z,7.10
2023-02-04T10:54:57.057Z,6.89
2023-02-04T10:57:01.667Z,6.93
2023-02-04T10:59:04.344Z,6.58
2023-02-04T11:01:10.719Z,6.91
2023-02-04T11:03:17.410Z,7.07
2023-02-04T11:05:22.506Z,7.26
2023-02-04T11:07:26.579Z,7.07
2023-02-04T11:09:30.703Z,7.13
2023-02-04T11:11:33.338Z,6.77
2023-02-04T11:13:43.943Z,6.86
2023-02-04T11:15:50.554Z,6.44
2023-02-04T11:18:03.825Z,6.50
2023-02-04T11:20:17.556Z,6.38
2023-02-04T11:22:23.848Z,6.68
2023-02-04T11:24:27.054Z,6.40
2023-02-04T11:26:36.292Z,6.87
2023-02-04T11:28:50.204Z,7.30
2023-02-04T11:31:00.874Z,7.56
2023-02-04T11:33:06.141Z,7.62
2023-02-04T11:35:27.494Z,7.80
2023-02-04T11:37:37.154Z,7.62
2023-02-04T11:39:42.359Z,7.14
2023-02-04T11:41:47.550Z,7.70
2023-02-04T11:43:51.844Z,7.28
2023-02-04T11:46:04.093Z,7.03
2023-02-04T11:48:14.776Z,7.07
2023-02-04T11:50:22.083Z,7.39
2023-02-04T11:52:24.655Z,7.42
2023-02-04T11:54:27.315Z,7.44
2023-02-04T11:56:30.969Z,6.60
2023-02-04T11:58:34.972Z,6.51
2023-02-04T12:00:38.646Z,6.35
2023-02-04T12:02:47.222Z,6.62
2023-02-04T12:04:58.451Z,6.59
2023-02-04T12:07:04.405Z,6.54
2023-02-04T12:09:08.946Z,6.85
2023-02-04T12:11:15.585Z,7.19
2023-02-04T12:13:23.401Z,7.05
2023-02-04T12:15:35.769Z,7.20
2023-02-04T12:17:38.857Z,7.46
2023-02-04T12:19:41.484Z,6.87
2023-02-04T12:21:44.325Z,6.88
2023-02-04T12:23:46.968Z,6.50
2023-02-04T12:25:50.120Z,6.92
2023-02-04T12:27:54.577Z,7.10
2023-02-04T12:29:57.242Z,6.64
2023-02-04T12:32:01.430Z,6.67
2023-02-04T12:34:04.111Z,6.86
2023-02-04T12:36:07.601Z,7.29
2023-02-04T12:38:10.514Z,7.18
2023-02-04T12:40:16.799Z,7.40
2023-02-04T12:42:19.408Z,7.19
2023-02-04T12:44:22.311Z,7.12
2023-02-04T12:46:25.053Z,7.01
2023-02-04T12:48:29.232Z,7.31
2023-02-04T12:50:31.917Z,7.24
2023-02-04T12:52:34.807Z,6.99
2023-02-04T12:54:37.508Z,7.62
2023-02-04T12:56:40.210Z,7.61
2023-02-04T12:58:42.869Z,7.72
2023-02-04T13:00:45.551Z,7.07
2023-02-04T13:02:48.362Z,7.00
2023-02-04T13:04:52.478Z,7.05
2023-02-04T13:06:55.255Z,6.52
2023-02-04T13:08:57.946Z,7.09
2023-02-04T13:11:00.597Z,7.12
2023-02-04T13:13:04.675Z,7.49
2023-02-04T13:15:08.506Z,8.70
2023-02-04T13:17:11.450Z,7.94
2023-02-04T13:19:14.079Z,7.45
2023-02-04T13:21:18.531Z,7.68
2023-02-04T13:23:21.165Z,7.98
2023-02-04T13:25:23.814Z,7.65
2023-02-04T13:27:27.660Z,6.95
2023-02-04T13:29:30.336Z,6.70
2023-02-04T13:31:33.148Z,7.01
2023-02-04T13:33:35.968Z,6.73
2023-02-04T13:35:38.634Z,7.02
2023-02-04T13:37:42.722Z,6.90
2023-02-04T13:39:45.355Z,6.46
2023-02-04T13:41:48.032Z,6.41
2023-02-04T13:43:50.948Z,6.51
2023-02-04T13:45:53.611Z,6.33
2023-02-04T13:47:56.291Z,6.54
2023-02-04T13:49:58.962Z,6.64
2023-02-04T13:52:01.643Z,6.51
2023-02-04T13:54:05.796Z,6.65
2023-02-04T13:56:08.796Z,6.67
2023-02-04T13:58:11.576Z,6.41
2023-02-04T14:00:15.557Z,6.40
2023-02-04T14:02:18.598Z,6.28
2023-02-04T14:04:21.300Z,6.44
2023-02-04T14:06:25.217Z,6.46
2023-02-04T14:08:28.364Z,6.51
2023-02-04T14:10:32.865Z,6.63
2023-02-04T14:12:35.790Z,6.61
2023-02-04T14:14:38.436Z,6.55
2023-02-04T14:16:41.214Z,6.73
2023-02-04T14:18:43.900Z,6.71
2023-02-04T14:20:46.608Z,6.88
2023-02-04T14:22:49.351Z,6.63
2023-02-04T14:24:51.973Z,6.78
2023-02-04T14:26:56.305Z,6.69
2023-02-04T14:28:58.987Z,6.97
2023-02-04T14:31:01.725Z,6.54
2023-02-04T14:33:04.811Z,6.85
2023-02-04T14:35:07.898Z,6.77
2023-02-04T14:37:10.576Z,6.84
2023-02-04T14:39:13.226Z,6.83
2023-02-04T14:41:19.936Z,6.51
2023-02-04T14:43:23.996Z,6.45
2023-02-04T14:45:26.656Z,6.64
2023-02-04T14:47:29.234Z,6.61
2023-02-04T14:49:33.024Z,6.62
2023-02-04T14:51:35.723Z,6.73
2023-02-04T14:53:39.202Z,6.64
2023-02-04T14:55:42.536Z,6.48
2023-02-04T14:57:45.152Z,6.64
2023-02-04T14:59:49.103Z,6.20
2023-02-04T15:01:52.301Z,6.22
2023-02-04T15:03:55.054Z,6.35
2023-02-04T15:05:57.723Z,6.42
2023-02-04T15:08:00.357Z,6.47
2023-02-04T15:10:03.149Z,6.47
2023-02-04T15:12:06.523Z,6.72
2023-02-04T15:14:09.150Z,6.61
2023-02-04T15:16:14.751Z,6.25
2023-02-04T15:18:17.838Z,6.33
2023-02-04T15:20:20.591Z,6.48
2023-02-04T15:22:23.398Z,6.37
2023-02-04T15:24:27.694Z,6.53
2023-02-04T15:26:30.277Z,6.19
2023-02-04T15:28:32.902Z,6.14
2023-02-04T15:30:36.154Z,6.19
2023-02-04T15:32:42.794Z,6.36
2023-02-04T15:34:45.493Z,6.32
2023-02-04T15:36:48.231Z,6.27
2023-02-04T15:38:50.832Z,6.09
2023-02-04T15:40:53.572Z,6.04
2023-02-04T15:42:56.263Z,6.16
2023-02-04T15:44:58.910Z,6.21
2023-02-04T15:47:01.590Z,6.07
2023-02-04T15:49:05.649Z,6.12
2023-02-04T15:51:08.274Z,6.20
2023-02-04T15:53:10.912Z,6.09
2023-02-04T15:55:13.604Z,6.37
2023-02-04T15:57:16.221Z,6.23
2023-02-04T15:59:18.859Z,6.32
2023-02-04T16:01:21.634Z,6.35
2023-02-04T16:03:24.415Z,6.16
2023-02-04T16:05:28.501Z,6.27
2023-02-04T16:07:31.150Z,6.30
2023-02-04T16:09:33.723Z,6.16
2023-02-04T16:11:38.431Z,6.23
2023-02-04T16:13:41.118Z,6.35
2023-02-04T16:15:43.796Z,6.01
2023-02-04T16:17:46.496Z,5.99
2023-02-04T16:19:49.220Z,6.11
2023-02-04T16:21:53.579Z,5.93
2023-02-04T16:23:56.185Z,5.88
2023-02-04T16:25:58.902Z,5.98
2023-02-04T16:28:01.541Z,5.98
2023-02-04T16:30:05.000Z,6.20
2023-02-04T16:32:07.688Z,6.04
2023-02-04T16:34:10.377Z,5.91
2023-02-04T16:36:13.723Z,5.74
2023-02-04T16:38:19.242Z,5.86
2023-02-04T16:40:22.076Z,5.88
2023-02-04T16:42:24.708Z,5.90
2023-02-04T16:44:27.315Z,5.98
2023-02-04T16:46:31.804Z,5.77
2023-02-04T16:48:36.106Z,5.63
2023-02-04T16:50:38.985Z,5.62
2023-02-04T16:52:41.674Z,5.58
2023-02-04T16:54:45.729Z,5.59
2023-02-04T16:56:48.453Z,5.58
2023-02-04T16:58:51.060Z,5.44
2023-02-04T17:00:54.153Z,5.49
2023-02-04T17:02:57.006Z,5.41
2023-02-04T17:04:59.728Z,5.34
2023-02-04T17:07:02.330Z,5.24
2023-02-04T17:09:05.145Z,5.28
2023-02-04T17:11:26.541Z,5.22
2023-02-04T17:13:29.492Z,5.21
2023-02-04T17:15:32.532Z,5.17
2023-02-04T17:17:35.333Z,5.14
2023-02-04T17:19:38.016Z,5.10
2023-02-04T17:21:40.977Z,5.05
2023-02-04T17:23:44.653Z,5.12
2023-02-04T17:25:47.313Z,5.16
2023-02-04T17:27:51.895Z,5.15
2023-02-04T17:29:54.503Z,5.05
2023-02-04T17:31:57.263Z,5.00
2023-02-04T17:33:59.930Z,5.05
2023-02-04T17:36:03.421Z,5.06
2023-02-04T17:38:06.094Z,5.16
2023-02-04T17:40:12.729Z,4.93
2023-02-04T17:42:15.456Z,4.86
2023-02-04T17:44:23.748Z,4.88
2023-02-04T17:46:27.574Z,4.90
2023-02-04T17:48:30.719Z,4.90
2023-02-04T17:52:44.062Z,4.81
2023-02-04T17:54:46.768Z,4.80
2023-02-04T17:56:49.466Z,4.80
2023-02-04T17:58:52.143Z,4.84
2023-02-04T18:00:57.691Z,4.77
2023-02-04T18:03:00.861Z,4.76
2023-02-04T18:05:13.392Z,4.67
2023-02-04T18:07:16.080Z,4.66
2023-02-04T18:09:19.426Z,4.70
2023-02-04T18:11:27.019Z,4.60
2023-02-04T18:13:32.902Z,4.60
2023-02-04T18:15:37.165Z,4.58
2023-02-04T18:17:41.384Z,4.54
2023-02-04T18:19:45.122Z,4.46
2023-02-04T18:21:48.314Z,4.43
2023-02-04T18:24:10.715Z,4.42
2023-02-04T18:26:17.986Z,4.32
2023-02-04T18:28:22.574Z,4.24
2023-02-04T18:30:27.781Z,4.24
2023-02-04T18:32:37.448Z,4.19
2023-02-04T18:34:44.648Z,4.37
2023-02-04T18:36:47.424Z,4.18
2023-02-04T18:38:50.662Z,4.07
2023-02-04T18:40:59.314Z,3.93
2023-02-04T18:43:14.182Z,3.99
2023-02-04T18:45:25.667Z,4.01
2023-02-04T18:47:32.403Z,4.03
2023-02-04T18:49:39.625Z,4.04
2023-02-04T18:51:45.987Z,4.03
2023-02-04T18:53:48.848Z,4.02
2023-02-04T18:55:53.362Z,3.95
2023-02-04T18:57:56.405Z,3.87
2023-02-04T19:00:32.193Z,3.84
2023-02-04T19:02:39.315Z,3.80
2023-02-04T19:04:41.960Z,3.91
2023-02-04T19:06:48.346Z,3.85
2023-02-04T19:08:51.221Z,3.82
2023-02-04T19:10:55.736Z,3.84
2023-02-04T19:13:12.502Z,3.79
2023-02-04T19:15:35.129Z,3.66
2023-02-04T19:17:37.963Z,3.61
2023-02-04T19:19:44.076Z,3.52
2023-02-04T19:21:48.880Z,3.50
2023-02-04T19:23:55.651Z,3.58
2023-02-04T19:25:58.262Z,3.51
2023-02-04T19:28:02.438Z,3.44
2023-02-04T19:30:41.209Z,3.36
2023-02-04T19:32:46.328Z,3.47
2023-02-04T19:34:49.166Z,3.38
2023-02-04T19:36:54.766Z,3.33
2023-02-04T19:39:00.296Z,3.30
2023-02-04T19:41:03.014Z,3.39
2023-02-04T19:43:20.554Z,3.30
2023-02-04T19:45:25.260Z,3.33
2023-02-04T19:47:30.310Z,3.30
2023-02-04T19:49:37.846Z,3.34
2023-02-04T19:51:40.674Z,3.33
2023-02-04T19:53:46.991Z,3.41
2023-02-04T19:55:52.636Z,3.36
2023-02-04T19:57:58.374Z,3.39
2023-02-04T20:00:01.240Z,3.10
2023-02-04T20:02:21.839Z,3.24
2023-02-04T20:04:24.509Z,3.29
2023-02-04T20:06:33.878Z,3.40
2023-02-04T20:08:46.788Z,3.36
2023-02-04T20:10:49.212Z,3.39
2023-02-04T20:12:53.098Z,3.51
2023-02-04T20:14:57.683Z,3.30
2023-02-04T20:17:03.449Z,3.23
2023-02-04T20:19:15.874Z,3.20
2023-02-04T20:21:18.508Z,3.15
2023-02-04T20:23:29.408Z,3.30
2023-02-04T20:25:39.755Z,3.26
2023-02-04T20:27:42.812Z,3.30
2023-02-04T20:29:45.846Z,3.14
2023-02-04T20:31:48.679Z,2.97
2023-02-04T20:33:53.413Z,3.06
2023-02-04T20:36:25.836Z,2.95
2023-02-04T20:38:28.552Z,3.07
2023-02-04T20:40:35.953Z,3.07
2023-02-04T20:42:46.122Z,2.88
2023-02-04T20:44:48.884Z,2.88
2023-02-04T20:46:51.475Z,2.77
2023-02-04T20:48:54.040Z,2.75
2023-02-04T20:51:01.392Z,2.68
2023-02-04T20:53:08.664Z,2.75
2023-02-04T20:55:24.524Z,2.79
2023-02-04T20:57:27.277Z,2.76
2023-02-04T20:59:34.610Z,2.77
2023-02-04T21:01:39.093Z,2.86
2023-02-04T21:03:41.704Z,2.91
2023-02-04T21:05:44.436Z,2.63
2023-02-04T21:07:47.058Z,2.40
2023-02-04T21:09:51.541Z,2.51
2023-02-04T21:11:55.305Z,2.66
2023-02-04T21:13:57.953Z,2.72
2023-02-04T21:16:02.320Z,2.71
2023-02-04T21:18:05.463Z,2.70
2023-02-04T21:20:08.962Z,2.72
2023-02-04T21:22:11.626Z,2.72
2023-02-04T21:24:14.833Z,2.71
2023-02-04T21:26:17.545Z,2.67
2023-02-04T21:28:20.294Z,2.59
2023-02-04T21:30:24.217Z,2.60
2023-02-04T21:32:28.266Z,2.64
2023-02-04T21:34:30.974Z,2.68
2023-02-04T21:36:33.754Z,2.63
2023-02-04T21:38:36.418Z,2.50
2023-02-04T21:40:40.137Z,2.45
2023-02-04T21:42:42.809Z,2.49
2023-02-04T21:44:45.475Z,2.51
2023-02-04T21:46:48.213Z,2.53
2023-02-04T21:48:52.239Z,2.52
2023-02-04T21:50:54.905Z,2.55
2023-02-04T21:52:57.593Z,2.63
2023-02-04T21:55:00.274Z,2.57
2023-02-04T21:57:04.328Z,2.41
2023-02-04T21:59:06.931Z,2.46
2023-02-04T22:01:10.434Z,2.31
2023-02-04T22:03:17.123Z,2.44
2023-02-04T22:05:21.648Z,2.55
2023-02-04T22:07:24.426Z,2.63
2023-02-04T22:09:27.099Z,2.70
2023-02-04T22:11:29.795Z,2.76
2023-02-04T22:13:32.503Z,2.77
2023-02-04T22:15:35.460Z,2.80
2023-02-04T22:17:38.450Z,2.86
2023-02-04T22:19:41.069Z,2.93
2023-02-04T22:21:45.122Z,2.92
2023-02-04T22:23:47.748Z,3.00
2023-02-04T22:25:50.403Z,3.08
2023-02-04T22:27:53.028Z,3.07
2023-02-04T22:29:56.960Z,3.16
2023-02-04T22:31:59.816Z,3.10
2023-02-04T22:34:03.339Z,3.03
2023-02-04T22:36:06.566Z,3.08
2023-02-04T22:38:10.510Z,3.15
2023-02-04T22:40:13.732Z,3.14
2023-02-04T22:42:16.487Z,3.24
2023-02-04T22:44:19.269Z,3.22
2023-02-04T22:46:22.318Z,3.29
2023-02-04T22:48:24.977Z,3.30
2023-02-04T22:50:27.671Z,3.33
2023-02-04T22:52:30.268Z,3.39
2023-02-04T22:54:34.466Z,3.47
2023-02-04T22:56:37.215Z,3.49
2023-02-04T22:58:39.804Z,3.40
2023-02-04T23:00:43.130Z,3.46
2023-02-04T23:02:45.862Z,3.45
2023-02-04T23:04:48.535Z,3.52
2023-02-04T23:06:51.998Z,3.38
2023-02-04T23:08:54.852Z,3.35
2023-02-04T23:10:58.928Z,3.38
2023-02-04T23:13:01.581Z,3.52
2023-02-04T23:15:04.633Z,3.51
2023-02-04T23:17:07.412Z,3.63
2023-02-04T23:19:10.140Z,3.59
2023-02-04T23:21:12.882Z,3.90
2023-02-04T23:23:17.504Z,3.77
2023-02-04T23:25:20.911Z,3.87
2023-02-04T23:27:25.040Z,3.66
2023-02-04T23:29:29.174Z,3.65
2023-02-04T23:31:31.925Z,3.68
2023-02-04T23:33:34.624Z,3.40
2023-02-04T23:35:37.845Z,3.06
2023-02-04T23:37:40.479Z,2.92
2023-02-04T23:39:43.167Z,2.80
2023-02-04T23:41:46.041Z,2.79
2023-02-04T23:43:50.010Z,2.94
2023-02-04T23:45:52.837Z,3.04
2023-02-04T23:47:55.681Z,3.06
2023-02-04T23:49:58.338Z,2.96
2023-02-04T23:52:01.822Z,2.88
2023-02-04T23:54:05.140Z,2.91
2023-02-04T23:56:08.177Z,2.87
2023-02-04T23:58:11.594Z,2.73
